createdAt,value
2022-12-18T00:03:37.037Z,60.67
2022-12-18T00:06:04.310Z,56.45
2022-12-18T00:08:31.098Z,61.63
2022-12-18T00:11:07.074Z,65.22
2022-12-18T00:13:34.400Z,57.97
2022-12-18T00:16:10.492Z,64.88
2022-12-18T00:18:38.195Z,55.95
2022-12-18T00:21:08.078Z,62.80
2022-12-18T00:23:36.682Z,62.97
2022-12-18T00:26:06.881Z,62.90
2022-12-18T00:28:34.339Z,60.45
2022-12-18T00:31:06.674Z,57.72
2022-12-18T00:33:34.478Z,61.55
2022-12-18T00:36:09.222Z,63.47
2022-12-18T00:38:36.557Z,56.72
2022-12-18T00:41:03.831Z,65.18
2022-12-18T00:43:30.706Z,66.53
2022-12-18T00:45:57.510Z,63.80
2022-12-18T00:48:24.281Z,61.10
2022-12-18T00:50:52.111Z,61.42
2022-12-18T00:53:19.449Z,55.70
2022-12-18T00:55:47.192Z,58.33
2022-12-18T00:58:15.914Z,64.63
2022-12-18T01:00:43.769Z,58.97
2022-12-18T01:03:10.979Z,65.03
2022-12-18T01:05:41.242Z,62.20
2022-12-18T01:08:07.986Z,58.50
2022-12-18T01:10:34.717Z,57.30
2022-12-18T01:13:01.486Z,62.60
2022-12-18T01:15:28.235Z,57.25
2022-12-18T01:17:54.994Z,60.38
2022-12-18T01:20:21.960Z,52.28
2022-12-18T01:22:48.739Z,61.72
2022-12-18T01:25:15.481Z,55.60
2022-12-18T01:27:42.313Z,53.40
2022-12-18T01:30:09.482Z,60.78
2022-12-18T01:32:36.206Z,52.40
2022-12-18T01:35:03.148Z,53.10
2022-12-18T01:37:30.025Z,56.42
2022-12-18T01:39:56.753Z,58.22
2022-12-18T01:42:23.537Z,63.03
2022-12-18T01:45:05.381Z,56.53
2022-12-18T01:47:55.558Z,52.03
2022-12-18T01:52:57.954Z,41.35
2022-12-18T01:55:30.736Z,57.17
2022-12-18T01:57:59.793Z,56.70
2022-12-18T02:00:27.951Z,60.08
2022-12-18T02:02:56.703Z,56.67
2022-12-18T02:05:35.710Z,53.42
2022-12-18T02:08:13.387Z,54.90
2022-12-18T02:10:53.438Z,63.08
2022-12-18T02:13:29.639Z,57.72
2022-12-18T02:16:51.180Z,54.78
2022-12-18T02:19:53.743Z,59.97
2022-12-18T02:22:34.444Z,59.70
2022-12-18T02:25:27.255Z,58.50
2022-12-18T02:27:55.765Z,56.78
2022-12-18T02:30:23.638Z,56.17
2022-12-18T02:32:54.002Z,51.22
2022-12-18T02:35:25.269Z,59.90
2022-12-18T02:37:52.322Z,58.03
2022-12-18T02:40:21.142Z,56.05
2022-12-18T02:42:48.083Z,52.78
2022-12-18T02:45:14.851Z,54.35
2022-12-18T02:47:45.376Z,52.63
2022-12-18T02:50:12.089Z,58.70
2022-12-18T02:52:53.998Z,51.78
2022-12-18T02:55:51.632Z,52.67
2022-12-18T02:58:52.893Z,47.40
2022-12-18T03:01:30.608Z,50.50
2022-12-18T03:04:16.258Z,48.63
2022-12-18T03:06:48.945Z,54.13
2022-12-18T03:09:47.506Z,51.95
2022-12-18T03:12:26.166Z,52.33
2022-12-18T03:15:17.304Z,54.35
2022-12-18T03:17:50.070Z,51.85
2022-12-18T03:20:21.074Z,55.10
2022-12-18T03:22:53.147Z,59.33
2022-12-18T03:25:20.932Z,58.75
2022-12-18T03:27:52.549Z,49.22
2022-12-18T03:30:19.729Z,53.10
2022-12-18T03:33:12.204Z,50.42
2022-12-18T03:35:42.833Z,56.25
2022-12-18T03:38:11.280Z,51.88
2022-12-18T03:41:06.997Z,53.42
2022-12-18T03:43:37.112Z,49.80
2022-12-18T03:46:09.386Z,51.40
2022-12-18T03:48:52.878Z,53.35
2022-12-18T03:51:29.448Z,49.55
2022-12-18T03:54:02.768Z,45.97
2022-12-18T03:56:38.439Z,49.40
2022-12-18T03:59:06.543Z,53.72
2022-12-18T04:01:36.933Z,46.90
2022-12-18T04:04:04.828Z,50.92
2022-12-18T04:06:33.174Z,45.53
2022-12-18T04:09:00.415Z,47.05
2022-12-18T04:11:27.240Z,42.70
2022-12-18T04:13:58.606Z,45.92
2022-12-18T04:16:26.777Z,41.58
2022-12-18T04:18:54.257Z,44.50
2022-12-18T04:21:21.670Z,48.78
2022-12-18T04:23:48.437Z,50.50
2022-12-18T04:26:15.369Z,43.70
2022-12-18T04:28:42.058Z,44.42
2022-12-18T04:31:08.801Z,47.33
2022-12-18T04:33:35.555Z,44.65
2022-12-18T04:36:02.450Z,40.30
2022-12-18T04:38:29.209Z,39.92
2022-12-18T04:40:55.983Z,39.83
2022-12-18T04:43:22.928Z,44.35
2022-12-18T04:45:49.691Z,40.40
2022-12-18T04:48:17.082Z,38.50
2022-12-18T04:50:43.833Z,40.67
2022-12-18T04:53:10.607Z,38.13
2022-12-18T04:55:37.521Z,36.42
2022-12-18T04:58:04.301Z,37.95
2022-12-18T05:00:31.093Z,41.03
2022-12-18T05:02:57.882Z,37.17
2022-12-18T05:05:24.722Z,39.15
2022-12-18T05:07:51.398Z,37.22
2022-12-18T05:10:18.159Z,37.13
2022-12-18T05:13:01.891Z,38.95
2022-12-18T05:15:31.382Z,36.40
2022-12-18T05:17:59.420Z,29.23
2022-12-18T05:20:27.146Z,35.20
2022-12-18T05:22:55.179Z,37.03
2022-12-18T05:25:23.166Z,34.22
2022-12-18T05:27:49.909Z,34.60
2022-12-18T05:30:17.503Z,35.88
2022-12-18T05:32:44.503Z,34.58
2022-12-18T05:35:12.153Z,33.97
2022-12-18T05:37:42.994Z,38.38
2022-12-18T05:40:10.593Z,32.40
2022-12-18T05:42:37.326Z,34.05
2022-12-18T05:45:04.671Z,33.75
2022-12-18T05:47:31.493Z,33.78
2022-12-18T05:49:58.399Z,36.75
2022-12-18T05:52:25.592Z,42.45
2022-12-18T05:54:52.377Z,37.70
2022-12-18T05:57:19.233Z,35.72
2022-12-18T05:59:45.983Z,41.88
2022-12-18T06:02:12.914Z,35.97
2022-12-18T06:04:39.738Z,37.63
2022-12-18T06:07:06.551Z,35.35
2022-12-18T06:09:33.434Z,37.03
2022-12-18T06:12:00.495Z,36.08
2022-12-18T06:14:27.293Z,36.15
2022-12-18T06:16:54.143Z,36.50
2022-12-18T06:19:21.031Z,38.28
2022-12-18T06:21:48.250Z,33.60
2022-12-18T06:24:14.948Z,34.38
2022-12-18T06:26:41.757Z,36.08
2022-12-18T06:29:08.589Z,37.13
2022-12-18T06:31:35.633Z,32.75
2022-12-18T06:34:06.014Z,39.83
2022-12-18T06:36:33.039Z,39.00
2022-12-18T06:39:00.431Z,35.88
2022-12-18T06:41:27.352Z,39.75
2022-12-18T06:43:59.351Z,34.03
2022-12-18T06:46:26.405Z,35.85
2022-12-18T06:48:53.126Z,30.70
2022-12-18T06:51:24.906Z,39.10
2022-12-18T06:53:51.726Z,31.58
2022-12-18T06:56:18.471Z,32.13
2022-12-18T06:58:45.493Z,32.00
2022-12-18T07:01:13.586Z,34.58
2022-12-18T07:03:42.381Z,34.03
2022-12-18T07:06:17.439Z,27.13
2022-12-18T07:08:44.819Z,37.22
2022-12-18T07:11:11.758Z,32.83
2022-12-18T07:13:38.943Z,38.58
2022-12-18T07:16:12.475Z,35.05
2022-12-18T07:18:43.341Z,34.70
2022-12-18T07:21:12.390Z,36.35
2022-12-18T07:23:39.861Z,26.70
2022-12-18T07:26:14.771Z,33.83
2022-12-18T07:28:43.099Z,39.30
2022-12-18T07:31:16.092Z,32.67
2022-12-18T07:33:43.416Z,29.08
2022-12-18T07:36:11.214Z,33.45
2022-12-18T07:38:38.473Z,33.90
2022-12-18T07:41:13.552Z,35.20
2022-12-18T07:43:41.938Z,30.65
2022-12-18T07:46:10.491Z,29.67
2022-12-18T07:48:42.114Z,31.50
2022-12-18T07:51:09.806Z,37.55
2022-12-18T07:53:37.432Z,34.15
2022-12-18T07:58:54.818Z,46.05
2022-12-18T08:01:21.810Z,37.97
2022-12-18T08:03:48.733Z,32.95
2022-12-18T08:06:16.934Z,35.03
2022-12-18T08:08:44.734Z,36.50
2022-12-18T08:11:11.505Z,33.72
2022-12-18T08:13:38.703Z,39.97
2022-12-18T08:16:08.385Z,37.60
2022-12-18T08:18:38.896Z,33.05
2022-12-18T08:21:29.718Z,40.92
2022-12-18T08:24:01.467Z,38.15
2022-12-18T08:26:32.543Z,36.72
2022-12-18T08:29:00.688Z,39.75
2022-12-18T08:31:29.398Z,34.40
2022-12-18T08:33:57.864Z,43.60
2022-12-18T08:36:25.726Z,36.80
2022-12-18T08:38:54.107Z,41.45
2022-12-18T08:41:21.280Z,32.25
2022-12-18T08:44:07.621Z,37.45
2022-12-18T08:46:43.117Z,40.90
2022-12-18T08:49:11.313Z,33.15
2022-12-18T08:51:38.397Z,38.72
2022-12-18T08:54:06.470Z,36.78
2022-12-18T08:56:34.392Z,35.25
2022-12-18T08:59:01.432Z,35.00
2022-12-18T09:01:28.537Z,30.98
2022-12-18T09:03:55.359Z,37.03
2022-12-18T09:06:24.023Z,52.72
2022-12-18T09:08:50.823Z,49.13
2022-12-18T09:11:25.849Z,38.58
2022-12-18T09:13:53.578Z,41.28
2022-12-18T09:16:30.297Z,32.47
2022-12-18T09:19:02.064Z,36.88
2022-12-18T09:21:33.058Z,40.70
2022-12-18T09:24:02.802Z,42.60
2022-12-18T09:26:29.619Z,40.05
2022-12-18T09:28:57.075Z,40.47
2022-12-18T09:31:25.742Z,44.30
2022-12-18T09:33:52.692Z,45.05
2022-12-18T09:36:19.905Z,44.17
2022-12-18T09:38:48.429Z,41.00
2022-12-18T09:41:40.355Z,39.45
2022-12-18T09:44:37.748Z,41.05
2022-12-18T09:47:19.647Z,37.55
2022-12-18T09:49:49.772Z,42.33
2022-12-18T09:55:02.701Z,39.45
2022-12-18T09:57:34.406Z,43.22
2022-12-18T10:00:16.174Z,37.55
2022-12-18T10:02:43.074Z,48.58
2022-12-18T10:05:20.021Z,46.17
2022-12-18T10:07:46.799Z,41.38
2022-12-18T10:10:53.395Z,38.55
2022-12-18T10:13:24.247Z,41.70
2022-12-18T10:16:22.666Z,46.28
2022-12-18T10:19:22.417Z,39.45
2022-12-18T10:22:10.806Z,28.60
2022-12-18T10:24:55.809Z,36.45
2022-12-18T10:27:26.860Z,35.28
2022-12-18T10:29:55.184Z,40.50
2022-12-18T10:32:32.745Z,39.72
2022-12-18T10:35:00.656Z,35.85
2022-12-18T10:37:30.153Z,35.55
2022-12-18T10:40:10.112Z,36.17
2022-12-18T10:42:36.934Z,35.17
2022-12-18T10:45:14.316Z,39.65
2022-12-18T10:47:49.478Z,36.47
2022-12-18T10:51:01.423Z,38.10
2022-12-18T10:53:28.833Z,37.38
2022-12-18T10:55:59.401Z,40.47
2022-12-18T11:01:21.297Z,36.65
2022-12-18T11:04:02.898Z,39.53
2022-12-18T11:06:30.721Z,35.47
2022-12-18T11:09:13.197Z,38.58
2022-12-18T11:11:42.053Z,37.47
2022-12-18T11:14:30.061Z,32.63
2022-12-18T11:19:53.272Z,30.30
2022-12-18T11:22:25.499Z,38.95
2022-12-18T11:25:30.317Z,33.00
2022-12-18T11:27:50.554Z,34.97
2022-12-18T11:30:25.372Z,36.95
2022-12-18T11:33:00.385Z,38.80
2022-12-18T11:35:37.191Z,56.75
2022-12-18T11:38:13.975Z,30.30
2022-12-18T11:40:45.215Z,32.72
2022-12-18T11:43:36.851Z,35.35
2022-12-18T11:46:20.148Z,35.00
2022-12-18T11:48:59.982Z,26.88
2022-12-18T11:51:36.504Z,31.58
2022-12-18T11:54:17.380Z,32.72
2022-12-18T11:56:49.235Z,31.48
2022-12-18T11:59:49.054Z,34.95
2022-12-18T12:02:34.697Z,33.17
2022-12-18T12:05:04.562Z,32.50
2022-12-18T12:07:52.634Z,32.25
2022-12-18T12:10:31.968Z,29.10
2022-12-18T12:13:39.415Z,30.33
2022-12-18T12:16:25.606Z,28.85
2022-12-18T12:19:16.773Z,34.95
2022-12-18T12:22:25.086Z,32.05
2022-12-18T12:25:17.255Z,36.30
2022-12-18T12:28:00.047Z,35.63
2022-12-18T12:30:42.070Z,32.03
2022-12-18T12:33:49.721Z,31.15
2022-12-18T12:36:16.390Z,33.10
2022-12-18T12:38:51.724Z,31.60
2022-12-18T12:41:45.030Z,33.85
2022-12-18T12:44:19.654Z,26.98
2022-12-18T12:46:49.608Z,32.30
2022-12-18T12:49:20.511Z,30.98
2022-12-18T12:52:13.420Z,30.83
2022-12-18T12:54:40.727Z,28.90
2022-12-18T12:57:12.935Z,37.88
2022-12-18T12:59:45.847Z,44.83
2022-12-18T13:02:21.439Z,30.67
2022-12-18T13:05:02.386Z,30.85
2022-12-18T13:10:27.112Z,32.45
2022-12-18T13:13:04.908Z,36.60
2022-12-18T13:15:38.316Z,36.22
2022-12-18T13:18:09.615Z,33.05
2022-12-18T13:23:26.268Z,38.42
2022-12-18T13:26:23.233Z,39.50
2022-12-18T13:29:07.126Z,32.35
2022-12-18T13:31:39.960Z,37.90
2022-12-18T13:34:26.095Z,35.00
2022-12-18T13:36:56.237Z,35.83
2022-12-18T13:39:32.677Z,40.05
2022-12-18T13:42:07.236Z,38.08
2022-12-18T13:44:40.899Z,37.08
2022-12-18T13:47:26.853Z,34.85
2022-12-18T13:49:53.993Z,34.42
2022-12-18T13:52:25.663Z,35.22
2022-12-18T13:54:55.094Z,35.63
2022-12-18T13:57:29.799Z,35.38
2022-12-18T13:59:57.794Z,40.53
2022-12-18T14:02:29.818Z,35.63
2022-12-18T14:04:57.060Z,37.20
2022-12-18T14:07:25.191Z,41.97
2022-12-18T14:10:12.194Z,39.85
2022-12-18T14:13:01.279Z,46.45
2022-12-18T14:15:35.056Z,39.95
2022-12-18T14:18:03.784Z,41.40
2022-12-18T14:20:35.207Z,42.60
2022-12-18T14:23:04.669Z,38.53
2022-12-18T14:25:31.981Z,35.70
2022-12-18T14:28:08.859Z,36.85
2022-12-18T14:30:41.196Z,39.10
2022-12-18T14:33:21.435Z,41.58
2022-12-18T14:38:32.239Z,34.50
2022-12-18T14:41:03.299Z,41.10
2022-12-18T14:43:37.033Z,40.75
2022-12-18T14:46:06.172Z,38.10
2022-12-18T14:48:42.184Z,39.53
2022-12-18T14:51:11.780Z,39.35
2022-12-18T14:53:53.975Z,35.28
2022-12-18T14:56:25.074Z,41.67
2022-12-18T15:01:39.550Z,38.38
2022-12-18T15:04:27.164Z,42.03
2022-12-18T15:07:20.583Z,40.05
2022-12-18T15:10:15.048Z,37.20
2022-12-18T15:12:48.117Z,45.85
2022-12-18T15:15:40.713Z,38.15
2022-12-18T15:18:14.634Z,43.85
2022-12-18T15:21:21.726Z,41.72
2022-12-18T15:23:54.008Z,38.85
2022-12-18T15:26:23.063Z,46.47
2022-12-18T15:28:52.598Z,45.28
2022-12-18T15:31:33.470Z,41.25
2022-12-18T15:34:25.386Z,41.25
2022-12-18T15:36:53.122Z,46.67
2022-12-18T15:39:20.448Z,40.28
2022-12-18T15:42:06.370Z,44.08
2022-12-18T15:44:33.805Z,36.00
2022-12-18T15:47:02.219Z,40.67
2022-12-18T15:49:30.954Z,44.42
2022-12-18T15:52:14.915Z,43.42
2022-12-18T15:55:01.115Z,43.08
2022-12-18T15:57:28.697Z,40.25
2022-12-18T16:00:00.227Z,43.33
2022-12-18T16:02:29.642Z,47.13
2022-12-18T16:04:59.488Z,34.58
2022-12-18T16:07:30.328Z,49.42
2022-12-18T16:10:00.369Z,43.92
2022-12-18T16:12:29.449Z,41.28
2022-12-18T16:14:58.064Z,37.45
2022-12-18T16:17:25.996Z,38.10
2022-12-18T16:19:57.240Z,46.65
2022-12-18T16:22:48.629Z,40.22
2022-12-18T16:25:30.657Z,40.47
2022-12-18T16:27:59.688Z,45.35
2022-12-18T16:30:42.583Z,39.05
2022-12-18T16:33:13.170Z,39.22
2022-12-18T16:35:42.877Z,40.85
2022-12-18T16:38:10.401Z,41.05
2022-12-18T16:40:59.757Z,44.83
2022-12-18T16:43:27.279Z,44.13
2022-12-18T16:45:59.562Z,40.70
2022-12-18T16:48:30.412Z,43.40
2022-12-18T16:51:04.142Z,44.90
2022-12-18T16:53:33.612Z,40.58
2022-12-18T16:56:04.563Z,44.58
2022-12-18T16:58:34.743Z,40.88
2022-12-18T17:01:04.159Z,34.58
2022-12-18T17:03:42.461Z,37.28
2022-12-18T17:06:11.792Z,37.75
2022-12-18T17:08:39.418Z,36.78
2022-12-18T17:11:08.631Z,37.00
2022-12-18T17:13:36.473Z,35.43
2022-12-18T17:16:05.647Z,43.47
2022-12-18T17:18:35.888Z,39.90
2022-12-18T17:21:05.325Z,42.97
2022-12-18T17:23:32.733Z,37.05
2022-12-18T17:26:01.563Z,35.85
2022-12-18T17:28:29.981Z,40.38
2022-12-18T17:30:58.380Z,38.17
2022-12-18T17:33:26.394Z,44.67
2022-12-18T17:35:56.037Z,39.75
2022-12-18T17:38:23.789Z,40.72
2022-12-18T17:40:52.474Z,35.75
2022-12-18T17:43:20.220Z,41.55
2022-12-18T17:45:47.735Z,39.97
2022-12-18T17:48:17.174Z,43.42
2022-12-18T17:50:48.105Z,38.92
2022-12-18T17:53:15.990Z,36.38
2022-12-18T17:55:43.648Z,36.30
2022-12-18T17:58:12.598Z,40.92
2022-12-18T18:00:40.650Z,41.03
2022-12-18T18:03:10.680Z,39.97
2022-12-18T18:08:10.899Z,37.65
2022-12-18T18:10:39.722Z,40.88
2022-12-18T18:13:39.719Z,39.40
2022-12-18T18:16:11.352Z,43.20
2022-12-18T18:18:40.411Z,46.85
2022-12-18T18:21:09.821Z,43.05
2022-12-18T18:26:11.118Z,43.10
2022-12-18T18:28:38.536Z,43.38
2022-12-18T18:31:07.791Z,43.42
2022-12-18T18:33:35.717Z,41.92
2022-12-18T18:36:06.858Z,43.83
2022-12-18T18:38:34.630Z,41.67
2022-12-18T18:41:04.200Z,45.42
2022-12-18T18:43:33.463Z,43.33
2022-12-18T18:46:03.568Z,49.55
2022-12-18T18:48:38.512Z,49.70
2022-12-18T18:51:12.969Z,47.20
2022-12-18T18:53:46.762Z,46.30
2022-12-18T18:59:03.976Z,43.13
2022-12-18T19:01:31.754Z,52.03
2022-12-18T19:03:59.380Z,45.03
2022-12-18T19:06:28.665Z,52.15
2022-12-18T19:09:00.126Z,47.80
2022-12-18T19:11:46.110Z,48.30
2022-12-18T19:14:15.661Z,42.47
2022-12-18T19:16:45.898Z,37.42
2022-12-18T19:19:14.277Z,46.17
2022-12-18T19:21:41.971Z,90.30
2022-12-18T19:24:10.497Z,45.22
2022-12-18T19:26:39.185Z,52.25
2022-12-18T19:29:09.163Z,45.05
2022-12-18T19:31:37.531Z,46.17
2022-12-18T19:34:10.883Z,50.38
2022-12-18T19:36:40.281Z,48.60
2022-12-18T19:39:14.419Z,46.78
2022-12-18T19:41:43.183Z,49.13
2022-12-18T19:44:16.979Z,49.83
2022-12-18T19:46:46.741Z,51.13
2022-12-18T19:49:17.691Z,46.97
2022-12-18T19:51:46.306Z,49.33
2022-12-18T19:54:17.228Z,54.83
2022-12-18T19:56:45.572Z,49.28
2022-12-18T19:59:13.583Z,48.80
2022-12-18T20:01:41.898Z,54.08
2022-12-18T20:04:12.067Z,49.75
2022-12-18T20:06:54.675Z,50.72
2022-12-18T20:09:24.122Z,45.28
2022-12-18T20:11:52.411Z,50.58
2022-12-18T20:14:23.383Z,48.83
2022-12-18T20:16:53.387Z,49.38
2022-12-18T20:19:22.782Z,51.20
2022-12-18T20:21:50.526Z,52.47
2022-12-18T20:24:17.852Z,50.05
2022-12-18T20:26:45.341Z,50.88
2022-12-18T20:29:14.224Z,48.83
2022-12-18T20:31:41.713Z,54.03
2022-12-18T20:34:08.548Z,52.15
2022-12-18T20:36:37.666Z,48.40
2022-12-18T20:39:08.858Z,42.63
2022-12-18T20:41:39.389Z,45.40
2022-12-18T20:44:22.977Z,58.97
2022-12-18T20:46:56.986Z,52.75
2022-12-18T20:49:25.742Z,50.85
2022-12-18T20:51:54.845Z,51.08
2022-12-18T20:54:23.646Z,49.00
2022-12-18T20:56:51.921Z,53.65
2022-12-18T20:59:19.933Z,59.72
2022-12-18T21:01:48.880Z,53.38
2022-12-18T21:04:18.664Z,51.47
2022-12-18T21:06:52.334Z,56.88
2022-12-18T21:09:21.891Z,55.92
2022-12-18T21:12:07.963Z,50.15
2022-12-18T21:14:37.096Z,54.75
2022-12-18T21:17:04.831Z,48.50
2022-12-18T21:19:32.053Z,52.63
2022-12-18T21:21:59.082Z,49.42
2022-12-18T21:24:26.664Z,50.05
2022-12-18T21:26:56.034Z,49.08
2022-12-18T21:29:25.292Z,50.67
2022-12-18T21:31:54.075Z,50.92
2022-12-18T21:34:26.810Z,56.13
2022-12-18T21:36:55.397Z,47.15
2022-12-18T21:39:22.895Z,51.63
2022-12-18T21:42:09.407Z,55.10
2022-12-18T21:44:41.643Z,54.97
2022-12-18T21:47:22.112Z,49.42
2022-12-18T21:49:53.471Z,55.47
2022-12-18T21:52:28.334Z,53.67
2022-12-18T21:55:04.789Z,53.58
2022-12-18T21:57:35.923Z,50.22
2022-12-18T22:00:03.896Z,53.22
2022-12-18T22:02:30.866Z,50.78
2022-12-18T22:04:57.755Z,51.80
2022-12-18T22:07:24.543Z,50.90
2022-12-18T22:09:51.266Z,54.83
2022-12-18T22:12:35.627Z,49.88
2022-12-18T22:15:04.922Z,51.10
2022-12-18T22:17:32.070Z,45.15
2022-12-18T22:19:58.849Z,47.25
2022-12-18T22:22:25.936Z,50.03
2022-12-18T22:24:52.681Z,48.03
2022-12-18T22:27:19.597Z,54.63
2022-12-18T22:30:04.469Z,44.13
2022-12-18T22:32:35.970Z,52.33
2022-12-18T22:35:09.528Z,48.20
2022-12-18T22:37:40.911Z,50.05
2022-12-18T22:40:08.630Z,45.78
2022-12-18T22:42:35.581Z,57.47
2022-12-18T22:45:02.362Z,45.05
2022-12-18T22:47:30.507Z,46.85
2022-12-18T22:49:58.223Z,44.97
2022-12-18T22:52:25.396Z,45.70
2022-12-18T22:54:53.586Z,45.30
2022-12-18T22:57:21.959Z,45.22
2022-12-18T22:59:52.138Z,43.90
2022-12-18T23:02:19.755Z,55.72
2022-12-18T23:04:47.887Z,41.75
2022-12-18T23:07:15.424Z,49.45
2022-12-18T23:09:42.219Z,41.65
2022-12-18T23:12:15.490Z,44.60
2022-12-18T23:14:42.477Z,42.50
2022-12-18T23:17:09.271Z,42.72
2022-12-18T23:19:36.555Z,44.15
2022-12-18T23:22:07.253Z,45.85
2022-12-18T23:24:36.885Z,46.65
2022-12-18T23:27:03.701Z,46.47
2022-12-18T23:29:34.100Z,49.85
2022-12-18T23:32:00.818Z,47.67
2022-12-18T23:34:27.730Z,41.75
2022-12-18T23:36:56.242Z,40.33
2022-12-18T23:39:29.720Z,47.97
2022-12-18T23:42:00.284Z,46.78
2022-12-18T23:46:53.950Z,44.35
2022-12-18T23:49:20.739Z,45.15
2022-12-18T23:51:47.498Z,50.00
2022-12-18T23:54:14.451Z,48.25
2022-12-18T23:56:41.301Z,53.35
2022-12-18T23:59:08.021Z,46.65
